sensor_id;sensor_type;location;lat;lon;timestamp;temperature;humidity
32366;DHT22;18837;46.832;16.838;2024-02-23T00:01:31;9.50;97.80
32366;DHT22;18837;46.832;16.838;2024-02-23T00:03:56;9.50;97.80
32366;DHT22;18837;46.832;16.838;2024-02-23T00:06:22;9.50;97.90
32366;DHT22;18837;46.832;16.838;2024-02-23T00:08:54;9.50;97.30
32366;DHT22;18837;46.832;16.838;2024-02-23T00:11:21;9.60;98.00
32366;DHT22;18837;46.832;16.838;2024-02-23T00:13:46;9.50;97.90
32366;DHT22;18837;46.832;16.838;2024-02-23T00:16:12;9.50;97.80
32366;DHT22;18837;46.832;16.838;2024-02-23T00:18:38;9.50;97.80
32366;DHT22;18837;46.832;16.838;2024-02-23T00:21:04;9.50;97.90
32366;DHT22;18837;46.832;16.838;2024-02-23T00:23:31;9.50;97.90
32366;DHT22;18837;46.832;16.838;2024-02-23T00:25:56;9.50;97.90
32366;DHT22;18837;46.832;16.838;2024-02-23T00:28:22;9.50;98.10
32366;DHT22;18837;46.832;16.838;2024-02-23T00:30:48;9.50;98.00
32366;DHT22;18837;46.832;16.838;2024-02-23T00:33:14;9.50;97.90
32366;DHT22;18837;46.832;16.838;2024-02-23T00:35:40;9.50;98.00
32366;DHT22;18837;46.832;16.838;2024-02-23T00:38:06;9.60;98.00
32366;DHT22;18837;46.832;16.838;2024-02-23T00:40:34;9.60;98.00
32366;DHT22;18837;46.832;16.838;2024-02-23T00:43:01;9.60;98.00
32366;DHT22;18837;46.832;16.838;2024-02-23T00:45:28;9.60;98.00
32366;DHT22;18837;46.832;16.838;2024-02-23T00:47:54;9.60;98.00
32366;DHT22;18837;46.832;16.838;2024-02-23T00:50:20;9.60;98.00
32366;DHT22;18837;46.832;16.838;2024-02-23T00:52:46;9.60;97.70
32366;DHT22;18837;46.832;16.838;2024-02-23T00:55:12;9.60;97.90
32366;DHT22;18837;46.832;16.838;2024-02-23T00:57:38;9.60;97.90
32366;DHT22;18837;46.832;16.838;2024-02-23T01:00:04;9.60;98.00
32366;DHT22;18837;46.832;16.838;2024-02-23T01:02:34;9.60;97.80
32366;DHT22;18837;46.832;16.838;2024-02-23T01:05:00;9.60;98.00
32366;DHT22;18837;46.832;16.838;2024-02-23T01:07:26;9.60;98.00
32366;DHT22;18837;46.832;16.838;2024-02-23T01:09:52;9.60;98.00
32366;DHT22;18837;46.832;16.838;2024-02-23T01:12:17;9.60;97.80
32366;DHT22;18837;46.832;16.838;2024-02-23T01:14:43;9.60;97.90
32366;DHT22;18837;46.832;16.838;2024-02-23T01:17:09;9.60;97.90
32366;DHT22;18837;46.832;16.838;2024-02-23T01:19:35;9.60;98.10
32366;DHT22;18837;46.832;16.838;2024-02-23T01:22:00;9.60;98.00
32366;DHT22;18837;46.832;16.838;2024-02-23T01:24:27;9.60;98.00
32366;DHT22;18837;46.832;16.838;2024-02-23T01:26:56;9.60;98.00
32366;DHT22;18837;46.832;16.838;2024-02-23T01:29:23;9.60;98.00
32366;DHT22;18837;46.832;16.838;2024-02-23T01:31:49;9.60;98.00
32366;DHT22;18837;46.832;16.838;2024-02-23T01:34:15;9.60;97.90
32366;DHT22;18837;46.832;16.838;2024-02-23T01:36:40;9.60;97.90
32366;DHT22;18837;46.832;16.838;2024-02-23T01:39:06;9.60;97.80
32366;DHT22;18837;46.832;16.838;2024-02-23T01:41:33;9.70;97.70
32366;DHT22;18837;46.832;16.838;2024-02-23T01:43:58;9.60;97.70
32366;DHT22;18837;46.832;16.838;2024-02-23T01:46:24;9.60;97.70
32366;DHT22;18837;46.832;16.838;2024-02-23T01:48:50;9.70;97.70
32366;DHT22;18837;46.832;16.838;2024-02-23T01:51:16;9.60;97.70
32366;DHT22;18837;46.832;16.838;2024-02-23T01:53:42;9.60;97.70
32366;DHT22;18837;46.832;16.838;2024-02-23T01:56:09;9.60;97.60
32366;DHT22;18837;46.832;16.838;2024-02-23T01:58:37;9.70;97.60
32366;DHT22;18837;46.832;16.838;2024-02-23T02:01:03;9.60;97.50
32366;DHT22;18837;46.832;16.838;2024-02-23T02:03:29;9.70;97.50
32366;DHT22;18837;46.832;16.838;2024-02-23T02:05:57;9.70;97.40
32366;DHT22;18837;46.832;16.838;2024-02-23T02:08:27;9.70;97.50
32366;DHT22;18837;46.832;16.838;2024-02-23T02:10:53;9.70;97.50
32366;DHT22;18837;46.832;16.838;2024-02-23T02:13:19;9.70;97.40
32366;DHT22;18837;46.832;16.838;2024-02-23T02:15:44;9.70;97.40
32366;DHT22;18837;46.832;16.838;2024-02-23T02:18:10;9.70;97.50
32366;DHT22;18837;46.832;16.838;2024-02-23T02:20:36;9.70;97.40
32366;DHT22;18837;46.832;16.838;2024-02-23T02:23:03;9.70;97.40
32366;DHT22;18837;46.832;16.838;2024-02-23T02:25:28;9.70;97.30
32366;DHT22;18837;46.832;16.838;2024-02-23T02:27:54;9.70;97.40
32366;DHT22;18837;46.832;16.838;2024-02-23T02:30:20;9.70;97.40
32366;DHT22;18837;46.832;16.838;2024-02-23T02:32:46;9.70;97.40
32366;DHT22;18837;46.832;16.838;2024-02-23T02:35:12;9.70;97.30
32366;DHT22;18837;46.832;16.838;2024-02-23T02:37:38;9.70;97.30
32366;DHT22;18837;46.832;16.838;2024-02-23T02:40:05;9.70;97.40
32366;DHT22;18837;46.832;16.838;2024-02-23T02:42:31;9.60;97.20
32366;DHT22;18837;46.832;16.838;2024-02-23T02:44:57;9.70;97.40
32366;DHT22;18837;46.832;16.838;2024-02-23T02:47:22;9.60;97.20
32366;DHT22;18837;46.832;16.838;2024-02-23T02:49:49;9.60;97.30
32366;DHT22;18837;46.832;16.838;2024-02-23T02:52:16;9.60;97.40
32366;DHT22;18837;46.832;16.838;2024-02-23T02:54:42;9.60;97.70
32366;DHT22;18837;46.832;16.838;2024-02-23T02:57:08;9.60;97.00
32366;DHT22;18837;46.832;16.838;2024-02-23T02:59:34;9.60;97.40
32366;DHT22;18837;46.832;16.838;2024-02-23T03:02:01;9.60;97.50
32366;DHT22;18837;46.832;16.838;2024-02-23T03:04:27;9.60;97.30
32366;DHT22;18837;46.832;16.838;2024-02-23T03:06:52;9.60;97.50
32366;DHT22;18837;46.832;16.838;2024-02-23T03:09:18;9.60;97.50
32366;DHT22;18837;46.832;16.838;2024-02-23T03:11:44;9.60;97.50
32366;DHT22;18837;46.832;16.838;2024-02-23T03:14:10;9.60;97.50
32366;DHT22;18837;46.832;16.838;2024-02-23T03:16:35;9.60;97.60
32366;DHT22;18837;46.832;16.838;2024-02-23T03:19:03;9.60;97.50
32366;DHT22;18837;46.832;16.838;2024-02-23T03:21:30;9.50;97.60
32366;DHT22;18837;46.832;16.838;2024-02-23T03:23:56;9.50;97.70
32366;DHT22;18837;46.832;16.838;2024-02-23T03:26:22;9.50;97.30
32366;DHT22;18837;46.832;16.838;2024-02-23T03:28:48;9.50;97.70
32366;DHT22;18837;46.832;16.838;2024-02-23T03:31:14;9.50;97.50
32366;DHT22;18837;46.832;16.838;2024-02-23T03:33:40;9.50;97.70
32366;DHT22;18837;46.832;16.838;2024-02-23T03:36:06;9.50;97.70
32366;DHT22;18837;46.832;16.838;2024-02-23T03:38:31;9.50;97.60
32366;DHT22;18837;46.832;16.838;2024-02-23T03:40:59;9.50;97.50
32366;DHT22;18837;46.832;16.838;2024-02-23T03:43:25;9.50;97.70
32366;DHT22;18837;46.832;16.838;2024-02-23T03:45:51;9.50;97.60
32366;DHT22;18837;46.832;16.838;2024-02-23T03:48:17;9.50;97.60
32366;DHT22;18837;46.832;16.838;2024-02-23T03:50:42;9.50;97.80
32366;DHT22;18837;46.832;16.838;2024-02-23T03:53:08;9.50;97.80
32366;DHT22;18837;46.832;16.838;2024-02-23T03:55:34;9.50;97.60
32366;DHT22;18837;46.832;16.838;2024-02-23T03:58:00;9.50;97.70
32366;DHT22;18837;46.832;16.838;2024-02-23T04:00:25;9.50;97.80
32366;DHT22;18837;46.832;16.838;2024-02-23T04:02:51;9.50;97.70
32366;DHT22;18837;46.832;16.838;2024-02-23T04:05:18;9.40;97.70
32366;DHT22;18837;46.832;16.838;2024-02-23T04:07:47;9.50;97.80
32366;DHT22;18837;46.832;16.838;2024-02-23T04:10:13;9.40;97.90
32366;DHT22;18837;46.832;16.838;2024-02-23T04:12:42;9.50;97.70
32366;DHT22;18837;46.832;16.838;2024-02-23T04:15:09;9.40;97.80
32366;DHT22;18837;46.832;16.838;2024-02-23T04:17:35;9.50;97.60
32366;DHT22;18837;46.832;16.838;2024-02-23T04:20:05;9.40;97.70
32366;DHT22;18837;46.832;16.838;2024-02-23T04:22:31;9.40;97.80
32366;DHT22;18837;46.832;16.838;2024-02-23T04:24:57;9.40;97.70
32366;DHT22;18837;46.832;16.838;2024-02-23T04:27:23;9.40;97.60
32366;DHT22;18837;46.832;16.838;2024-02-23T04:29:49;9.40;97.70
32366;DHT22;18837;46.832;16.838;2024-02-23T04:32:15;9.40;97.60
32366;DHT22;18837;46.832;16.838;2024-02-23T04:34:41;9.50;97.60
32366;DHT22;18837;46.832;16.838;2024-02-23T04:37:07;9.40;97.80
32366;DHT22;18837;46.832;16.838;2024-02-23T04:39:32;9.40;97.70
32366;DHT22;18837;46.832;16.838;2024-02-23T04:41:58;9.40;97.50
32366;DHT22;18837;46.832;16.838;2024-02-23T04:44:24;9.40;97.60
32366;DHT22;18837;46.832;16.838;2024-02-23T04:46:50;9.40;97.50
32366;DHT22;18837;46.832;16.838;2024-02-23T04:49:16;9.40;97.30
32366;DHT22;18837;46.832;16.838;2024-02-23T04:51:41;9.40;97.50
32366;DHT22;18837;46.832;16.838;2024-02-23T04:54:07;9.40;97.50
32366;DHT22;18837;46.832;16.838;2024-02-23T04:56:33;9.40;97.50
32366;DHT22;18837;46.832;16.838;2024-02-23T04:58:59;9.40;97.50
32366;DHT22;18837;46.832;16.838;2024-02-23T05:01:25;9.40;97.40
32366;DHT22;18837;46.832;16.838;2024-02-23T05:03:51;9.40;97.50
32366;DHT22;18837;46.832;16.838;2024-02-23T05:06:18;9.40;97.40
32366;DHT22;18837;46.832;16.838;2024-02-23T05:08:44;9.40;97.60
32366;DHT22;18837;46.832;16.838;2024-02-23T05:11:10;9.40;97.60
32366;DHT22;18837;46.832;16.838;2024-02-23T05:13:35;9.40;97.80
32366;DHT22;18837;46.832;16.838;2024-02-23T05:16:03;9.40;97.60
32366;DHT22;18837;46.832;16.838;2024-02-23T05:18:29;9.40;97.60
32366;DHT22;18837;46.832;16.838;2024-02-23T05:20:54;9.40;97.80
32366;DHT22;18837;46.832;16.838;2024-02-23T05:23:20;9.40;97.60
32366;DHT22;18837;46.832;16.838;2024-02-23T05:25:46;9.40;97.50
32366;DHT22;18837;46.832;16.838;2024-02-23T05:28:12;9.40;97.50
32366;DHT22;18837;46.832;16.838;2024-02-23T05:30:38;9.40;97.60
32366;DHT22;18837;46.832;16.838;2024-02-23T05:33:03;9.40;97.50
32366;DHT22;18837;46.832;16.838;2024-02-23T05:35:30;9.40;97.20
32366;DHT22;18837;46.832;16.838;2024-02-23T05:37:56;9.40;97.70
32366;DHT22;18837;46.832;16.838;2024-02-23T05:40:22;9.40;97.50
32366;DHT22;18837;46.832;16.838;2024-02-23T05:42:48;9.40;97.50
32366;DHT22;18837;46.832;16.838;2024-02-23T05:45:13;9.40;97.50
32366;DHT22;18837;46.832;16.838;2024-02-23T05:47:39;9.40;97.40
32366;DHT22;18837;46.832;16.838;2024-02-23T05:50:08;9.40;97.40
32366;DHT22;18837;46.832;16.838;2024-02-23T05:52:37;9.40;97.50
32366;DHT22;18837;46.832;16.838;2024-02-23T05:55:03;9.40;97.60
32366;DHT22;18837;46.832;16.838;2024-02-23T05:57:29;9.30;97.40
32366;DHT22;18837;46.832;16.838;2024-02-23T05:59:55;9.40;97.50
32366;DHT22;18837;46.832;16.838;2024-02-23T06:02:22;9.40;97.50
32366;DHT22;18837;46.832;16.838;2024-02-23T06:04:48;9.40;97.60
32366;DHT22;18837;46.832;16.838;2024-02-23T06:07:14;9.40;97.50
32366;DHT22;18837;46.832;16.838;2024-02-23T06:09:45;9.30;97.50
32366;DHT22;18837;46.832;16.838;2024-02-23T06:12:11;9.40;97.80
32366;DHT22;18837;46.832;16.838;2024-02-23T06:14:37;9.40;97.50
32366;DHT22;18837;46.832;16.838;2024-02-23T06:17:03;9.30;97.50
32366;DHT22;18837;46.832;16.838;2024-02-23T06:19:29;9.40;97.50
32366;DHT22;18837;46.832;16.838;2024-02-23T06:21:55;9.30;97.70
32366;DHT22;18837;46.832;16.838;2024-02-23T06:24:22;9.30;97.40
32366;DHT22;18837;46.832;16.838;2024-02-23T06:26:49;9.40;97.70
32366;DHT22;18837;46.832;16.838;2024-02-23T06:29:15;9.40;97.70
32366;DHT22;18837;46.832;16.838;2024-02-23T06:31:41;9.30;97.50
32366;DHT22;18837;46.832;16.838;2024-02-23T06:34:07;9.40;97.80
32366;DHT22;18837;46.832;16.838;2024-02-23T06:36:33;9.40;97.50
32366;DHT22;18837;46.832;16.838;2024-02-23T06:38:59;9.30;97.40
32366;DHT22;18837;46.832;16.838;2024-02-23T06:41:25;9.30;97.60
32366;DHT22;18837;46.832;16.838;2024-02-23T06:43:53;9.40;97.60
32366;DHT22;18837;46.832;16.838;2024-02-23T06:46:19;9.30;97.60
32366;DHT22;18837;46.832;16.838;2024-02-23T06:48:48;9.40;97.30
32366;DHT22;18837;46.832;16.838;2024-02-23T06:51:14;9.30;97.50
32366;DHT22;18837;46.832;16.838;2024-02-23T06:53:41;9.40;97.50
32366;DHT22;18837;46.832;16.838;2024-02-23T06:56:07;9.40;97.40
32366;DHT22;18837;46.832;16.838;2024-02-23T06:58:33;9.30;97.50
32366;DHT22;18837;46.832;16.838;2024-02-23T07:00:59;9.40;97.40
32366;DHT22;18837;46.832;16.838;2024-02-23T07:03:25;9.40;97.50
32366;DHT22;18837;46.832;16.838;2024-02-23T07:05:51;9.40;97.50
32366;DHT22;18837;46.832;16.838;2024-02-23T07:08:17;9.40;97.40
32366;DHT22;18837;46.832;16.838;2024-02-23T07:10:43;9.40;97.60
32366;DHT22;18837;46.832;16.838;2024-02-23T07:13:10;9.40;97.40
32366;DHT22;18837;46.832;16.838;2024-02-23T07:15:37;9.40;97.40
32366;DHT22;18837;46.832;16.838;2024-02-23T07:18:03;9.40;97.50
32366;DHT22;18837;46.832;16.838;2024-02-23T07:20:29;9.40;97.60
32366;DHT22;18837;46.832;16.838;2024-02-23T07:22:55;9.40;97.70
32366;DHT22;18837;46.832;16.838;2024-02-23T07:25:21;9.40;98.00
32366;DHT22;18837;46.832;16.838;2024-02-23T07:27:48;9.40;97.50
32366;DHT22;18837;46.832;16.838;2024-02-23T07:30:17;9.40;97.60
32366;DHT22;18837;46.832;16.838;2024-02-23T07:32:43;9.40;97.60
32366;DHT22;18837;46.832;16.838;2024-02-23T07:35:10;9.40;97.50
32366;DHT22;18837;46.832;16.838;2024-02-23T07:37:39;9.40;97.30
32366;DHT22;18837;46.832;16.838;2024-02-23T07:40:07;9.50;97.80
32366;DHT22;18837;46.832;16.838;2024-02-23T07:42:33;9.50;97.20
32366;DHT22;18837;46.832;16.838;2024-02-23T07:45:05;9.40;97.50
32366;DHT22;18837;46.832;16.838;2024-02-23T07:47:32;9.40;97.60
32366;DHT22;18837;46.832;16.838;2024-02-23T07:49:58;9.50;97.50
32366;DHT22;18837;46.832;16.838;2024-02-23T07:52:24;9.50;97.30
32366;DHT22;18837;46.832;16.838;2024-02-23T07:54:52;9.50;97.30
32366;DHT22;18837;46.832;16.838;2024-02-23T07:57:19;9.50;97.30
32366;DHT22;18837;46.832;16.838;2024-02-23T07:59:45;9.50;97.30
32366;DHT22;18837;46.832;16.838;2024-02-23T08:02:10;9.50;97.30
32366;DHT22;18837;46.832;16.838;2024-02-23T08:04:36;9.50;97.30
32366;DHT22;18837;46.832;16.838;2024-02-23T08:07:03;9.50;97.20
32366;DHT22;18837;46.832;16.838;2024-02-23T08:09:29;9.50;97.10
32366;DHT22;18837;46.832;16.838;2024-02-23T08:11:55;9.50;97.20
32366;DHT22;18837;46.832;16.838;2024-02-23T08:14:21;9.50;96.80
32366;DHT22;18837;46.832;16.838;2024-02-23T08:16:47;9.50;97.10
32366;DHT22;18837;46.832;16.838;2024-02-23T08:19:12;9.50;97.10
32366;DHT22;18837;46.832;16.838;2024-02-23T08:21:38;9.50;96.90
32366;DHT22;18837;46.832;16.838;2024-02-23T08:24:05;9.60;97.20
32366;DHT22;18837;46.832;16.838;2024-02-23T08:26:34;9.60;97.20
32366;DHT22;18837;46.832;16.838;2024-02-23T08:55:31;9.70;97.70
32366;DHT22;18837;46.832;16.838;2024-02-23T08:57:59;9.80;97.70
32366;DHT22;18837;46.832;16.838;2024-02-23T09:00:25;9.80;97.70
32366;DHT22;18837;46.832;16.838;2024-02-23T09:02:50;9.80;97.70
32366;DHT22;18837;46.832;16.838;2024-02-23T09:05:16;9.80;97.60
32366;DHT22;18837;46.832;16.838;2024-02-23T09:07:42;9.80;97.80
32366;DHT22;18837;46.832;16.838;2024-02-23T09:10:08;9.90;97.70
32366;DHT22;18837;46.832;16.838;2024-02-23T09:12:34;9.90;97.90
32366;DHT22;18837;46.832;16.838;2024-02-23T09:15:00;9.90;97.90
32366;DHT22;18837;46.832;16.838;2024-02-23T09:17:26;9.90;97.90
32366;DHT22;18837;46.832;16.838;2024-02-23T09:19:52;10.00;97.80
32366;DHT22;18837;46.832;16.838;2024-02-23T09:22:17;10.00;97.80
32366;DHT22;18837;46.832;16.838;2024-02-23T09:24:43;10.00;97.70
32366;DHT22;18837;46.832;16.838;2024-02-23T09:27:09;10.00;97.80
32366;DHT22;18837;46.832;16.838;2024-02-23T09:29:35;10.00;97.70
32366;DHT22;18837;46.832;16.838;2024-02-23T09:32:01;10.00;97.70
32366;DHT22;18837;46.832;16.838;2024-02-23T09:34:27;10.00;97.90
32366;DHT22;18837;46.832;16.838;2024-02-23T09:36:53;10.10;97.80
32366;DHT22;18837;46.832;16.838;2024-02-23T09:39:19;10.10;97.70
32366;DHT22;18837;46.832;16.838;2024-02-23T09:41:45;10.10;97.40
32366;DHT22;18837;46.832;16.838;2024-02-23T09:44:15;10.10;97.60
32366;DHT22;18837;46.832;16.838;2024-02-23T09:46:44;10.10;97.90
32366;DHT22;18837;46.832;16.838;2024-02-23T09:49:11;10.10;97.70
32366;DHT22;18837;46.832;16.838;2024-02-23T09:51:39;10.10;97.80
32366;DHT22;18837;46.832;16.838;2024-02-23T09:54:05;10.10;97.80
32366;DHT22;18837;46.832;16.838;2024-02-23T09:56:31;10.10;97.80
32366;DHT22;18837;46.832;16.838;2024-02-23T09:59:02;10.10;97.60
32366;DHT22;18837;46.832;16.838;2024-02-23T10:01:29;10.10;98.00
32366;DHT22;18837;46.832;16.838;2024-02-23T10:04:01;10.10;97.80
32366;DHT22;18837;46.832;16.838;2024-02-23T10:06:29;10.10;98.00
32366;DHT22;18837;46.832;16.838;2024-02-23T10:08:55;10.10;97.60
32366;DHT22;18837;46.832;16.838;2024-02-23T10:11:22;10.10;97.80
32366;DHT22;18837;46.832;16.838;2024-02-23T10:13:49;10.10;97.80
32366;DHT22;18837;46.832;16.838;2024-02-23T10:16:19;10.10;97.90
32366;DHT22;18837;46.832;16.838;2024-02-23T10:18:49;10.00;97.90
32366;DHT22;18837;46.832;16.838;2024-02-23T10:21:15;10.10;97.70
32366;DHT22;18837;46.832;16.838;2024-02-23T10:23:43;10.10;97.70
32366;DHT22;18837;46.832;16.838;2024-02-23T10:26:10;10.00;97.70
32366;DHT22;18837;46.832;16.838;2024-02-23T10:28:37;10.00;97.50
32366;DHT22;18837;46.832;16.838;2024-02-23T10:31:06;10.00;97.40
32366;DHT22;18837;46.832;16.838;2024-02-23T10:33:32;10.00;97.40
32366;DHT22;18837;46.832;16.838;2024-02-23T10:35:58;10.00;97.40
32366;DHT22;18837;46.832;16.838;2024-02-23T10:38:29;10.00;97.50
32366;DHT22;18837;46.832;16.838;2024-02-23T10:40:57;10.00;97.50
32366;DHT22;18837;46.832;16.838;2024-02-23T10:43:36;10.00;97.60
32366;DHT22;18837;46.832;16.838;2024-02-23T10:46:04;10.00;97.80
32366;DHT22;18837;46.832;16.838;2024-02-23T10:48:34;10.40;97.60
32366;DHT22;18837;46.832;16.838;2024-02-23T10:51:01;10.00;97.40
32366;DHT22;18837;46.832;16.838;2024-02-23T10:53:28;10.00;97.50
32366;DHT22;18837;46.832;16.838;2024-02-23T10:55:57;10.00;97.30
32366;DHT22;18837;46.832;16.838;2024-02-23T10:58:24;10.00;97.40
32366;DHT22;18837;46.832;16.838;2024-02-23T11:00:49;10.40;97.30
32366;DHT22;18837;46.832;16.838;2024-02-23T11:03:15;10.00;97.30
32366;DHT22;18837;46.832;16.838;2024-02-23T11:05:41;10.10;97.30
32366;DHT22;18837;46.832;16.838;2024-02-23T11:08:08;10.00;97.30
32366;DHT22;18837;46.832;16.838;2024-02-23T11:10:49;10.00;97.30
32366;DHT22;18837;46.832;16.838;2024-02-23T11:13:16;10.00;97.50
32366;DHT22;18837;46.832;16.838;2024-02-23T11:15:42;10.00;97.30
32366;DHT22;18837;46.832;16.838;2024-02-23T11:18:29;10.00;97.40
32366;DHT22;18837;46.832;16.838;2024-02-23T11:20:58;10.00;97.30
32366;DHT22;18837;46.832;16.838;2024-02-23T11:23:24;10.00;97.50
32366;DHT22;18837;46.832;16.838;2024-02-23T11:26:05;10.00;97.50
32366;DHT22;18837;46.832;16.838;2024-02-23T11:28:42;10.00;97.70
32366;DHT22;18837;46.832;16.838;2024-02-23T11:31:14;10.00;97.50
32366;DHT22;18837;46.832;16.838;2024-02-23T11:33:48;10.00;97.50
32366;DHT22;18837;46.832;16.838;2024-02-23T11:36:28;10.00;97.40
32366;DHT22;18837;46.832;16.838;2024-02-23T11:38:56;10.00;97.00
32366;DHT22;18837;46.832;16.838;2024-02-23T11:41:23;10.00;97.20
32366;DHT22;18837;46.832;16.838;2024-02-23T11:43:50;10.00;97.30
32366;DHT22;18837;46.832;16.838;2024-02-23T11:46:17;10.00;97.30
32366;DHT22;18837;46.832;16.838;2024-02-23T11:48:43;10.00;97.20
32366;DHT22;18837;46.832;16.838;2024-02-23T11:51:14;10.00;97.30
32366;DHT22;18837;46.832;16.838;2024-02-23T11:53:40;10.00;97.50
32366;DHT22;18837;46.832;16.838;2024-02-23T11:56:06;10.00;97.40
32366;DHT22;18837;46.832;16.838;2024-02-23T11:58:33;10.00;97.50
32366;DHT22;18837;46.832;16.838;2024-02-23T12:01:00;10.00;97.40
32366;DHT22;18837;46.832;16.838;2024-02-23T12:03:29;9.90;97.50
32366;DHT22;18837;46.832;16.838;2024-02-23T12:05:57;9.90;97.70
32366;DHT22;18837;46.832;16.838;2024-02-23T12:08:27;9.90;97.40
32366;DHT22;18837;46.832;16.838;2024-02-23T12:10:57;9.90;97.10
32366;DHT22;18837;46.832;16.838;2024-02-23T12:13:26;9.90;97.60
32366;DHT22;18837;46.832;16.838;2024-02-23T12:15:55;9.90;97.40
32366;DHT22;18837;46.832;16.838;2024-02-23T12:18:24;9.90;97.50
32366;DHT22;18837;46.832;16.838;2024-02-23T12:20:52;9.90;97.60
32366;DHT22;18837;46.832;16.838;2024-02-23T12:23:18;9.90;97.50
32366;DHT22;18837;46.832;16.838;2024-02-23T12:25:57;9.90;97.60
32366;DHT22;18837;46.832;16.838;2024-02-23T12:28:23;9.90;97.80
32366;DHT22;18837;46.832;16.838;2024-02-23T12:31:03;9.90;97.50
32366;DHT22;18837;46.832;16.838;2024-02-23T12:33:29;9.90;97.80
32366;DHT22;18837;46.832;16.838;2024-02-23T12:35:57;9.90;97.60
32366;DHT22;18837;46.832;16.838;2024-02-23T12:38:23;9.90;97.50
32366;DHT22;18837;46.832;16.838;2024-02-23T12:40:50;9.90;97.50
32366;DHT22;18837;46.832;16.838;2024-02-23T12:43:17;9.90;97.60
32366;DHT22;18837;46.832;16.838;2024-02-23T12:45:53;9.90;97.70
32366;DHT22;18837;46.832;16.838;2024-02-23T12:48:20;9.90;97.90
32366;DHT22;18837;46.832;16.838;2024-02-23T12:50:46;9.90;97.70
32366;DHT22;18837;46.832;16.838;2024-02-23T12:53:35;9.90;97.70
32366;DHT22;18837;46.832;16.838;2024-02-23T12:56:12;9.90;97.60
32366;DHT22;18837;46.832;16.838;2024-02-23T12:58:40;9.90;97.90
32366;DHT22;18837;46.832;16.838;2024-02-23T13:01:06;9.90;97.90
32366;DHT22;18837;46.832;16.838;2024-02-23T13:03:34;9.90;97.80
32366;DHT22;18837;46.832;16.838;2024-02-23T13:06:00;9.90;97.90
32366;DHT22;18837;46.832;16.838;2024-02-23T13:08:26;9.90;97.80
32366;DHT22;18837;46.832;16.838;2024-02-23T13:10:53;9.90;97.70
32366;DHT22;18837;46.832;16.838;2024-02-23T13:13:19;9.90;97.90
32366;DHT22;18837;46.832;16.838;2024-02-23T13:15:46;9.90;97.90
32366;DHT22;18837;46.832;16.838;2024-02-23T13:18:13;9.90;98.10
32366;DHT22;18837;46.832;16.838;2024-02-23T13:20:39;9.90;98.70
32366;DHT22;18837;46.832;16.838;2024-02-23T13:23:07;10.00;98.90
32366;DHT22;18837;46.832;16.838;2024-02-23T13:25:34;10.00;98.60
32366;DHT22;18837;46.832;16.838;2024-02-23T13:28:01;10.00;98.60
32366;DHT22;18837;46.832;16.838;2024-02-23T13:30:27;10.00;98.40
32366;DHT22;18837;46.832;16.838;2024-02-23T13:32:53;10.00;98.20
32366;DHT22;18837;46.832;16.838;2024-02-23T13:35:19;10.00;98.30
32366;DHT22;18837;46.832;16.838;2024-02-23T13:37:45;10.00;98.30
32366;DHT22;18837;46.832;16.838;2024-02-23T13:40:11;10.00;98.30
32366;DHT22;18837;46.832;16.838;2024-02-23T13:42:37;10.00;98.40
32366;DHT22;18837;46.832;16.838;2024-02-23T13:45:07;10.00;98.40
32366;DHT22;18837;46.832;16.838;2024-02-23T13:47:33;10.00;98.30
32366;DHT22;18837;46.832;16.838;2024-02-23T13:50:00;10.00;98.40
32366;DHT22;18837;46.832;16.838;2024-02-23T13:52:26;10.00;98.20
32366;DHT22;18837;46.832;16.838;2024-02-23T13:54:52;10.00;98.00
32366;DHT22;18837;46.832;16.838;2024-02-23T13:57:18;10.00;98.20
32366;DHT22;18837;46.832;16.838;2024-02-23T13:59:44;10.00;98.10
32366;DHT22;18837;46.832;16.838;2024-02-23T14:02:10;10.00;98.00
32366;DHT22;18837;46.832;16.838;2024-02-23T14:04:36;10.00;98.00
32366;DHT22;18837;46.832;16.838;2024-02-23T14:07:02;10.00;98.00
32366;DHT22;18837;46.832;16.838;2024-02-23T14:09:29;10.00;98.00
32366;DHT22;18837;46.832;16.838;2024-02-23T14:11:55;10.00;98.00
32366;DHT22;18837;46.832;16.838;2024-02-23T14:14:20;10.00;97.90
32366;DHT22;18837;46.832;16.838;2024-02-23T14:16:47;10.00;97.80
32366;DHT22;18837;46.832;16.838;2024-02-23T14:19:13;10.00;97.70
32366;DHT22;18837;46.832;16.838;2024-02-23T14:21:38;10.00;97.70
32366;DHT22;18837;46.832;16.838;2024-02-23T14:24:04;10.00;97.80
32366;DHT22;18837;46.832;16.838;2024-02-23T14:26:30;10.00;97.70
32366;DHT22;18837;46.832;16.838;2024-02-23T14:28:56;10.00;97.70
32366;DHT22;18837;46.832;16.838;2024-02-23T14:31:22;10.10;98.00
32366;DHT22;18837;46.832;16.838;2024-02-23T14:33:48;10.10;98.30
32366;DHT22;18837;46.832;16.838;2024-02-23T14:36:17;10.20;98.00
32366;DHT22;18837;46.832;16.838;2024-02-23T14:38:43;10.20;97.90
32366;DHT22;18837;46.832;16.838;2024-02-23T14:41:09;10.30;97.70
32366;DHT22;18837;46.832;16.838;2024-02-23T14:43:36;10.30;97.70
32366;DHT22;18837;46.832;16.838;2024-02-23T14:46:02;10.30;97.70
32366;DHT22;18837;46.832;16.838;2024-02-23T14:48:28;10.30;97.40
32366;DHT22;18837;46.832;16.838;2024-02-23T14:50:54;10.30;97.20
32366;DHT22;18837;46.832;16.838;2024-02-23T14:53:20;10.40;97.10
32366;DHT22;18837;46.832;16.838;2024-02-23T14:55:46;10.50;97.10
32366;DHT22;18837;46.832;16.838;2024-02-23T14:58:12;10.50;97.10
32366;DHT22;18837;46.832;16.838;2024-02-23T15:00:38;10.50;97.00
32366;DHT22;18837;46.832;16.838;2024-02-23T15:03:04;10.50;96.90
32366;DHT22;18837;46.832;16.838;2024-02-23T15:05:30;10.40;97.00
32366;DHT22;18837;46.832;16.838;2024-02-23T15:07:56;10.40;97.10
32366;DHT22;18837;46.832;16.838;2024-02-23T15:10:22;10.40;97.10
32366;DHT22;18837;46.832;16.838;2024-02-23T15:12:48;10.40;97.20
32366;DHT22;18837;46.832;16.838;2024-02-23T15:15:13;10.40;97.30
32366;DHT22;18837;46.832;16.838;2024-02-23T15:17:40;10.40;97.10
32366;DHT22;18837;46.832;16.838;2024-02-23T15:20:08;10.30;97.20
32366;DHT22;18837;46.832;16.838;2024-02-23T15:22:34;10.30;97.30
32366;DHT22;18837;46.832;16.838;2024-02-23T15:25:00;10.30;97.30
32366;DHT22;18837;46.832;16.838;2024-02-23T15:27:26;10.40;97.30
32366;DHT22;18837;46.832;16.838;2024-02-23T15:29:52;10.40;97.20
32366;DHT22;18837;46.832;16.838;2024-02-23T15:32:18;10.40;97.30
32366;DHT22;18837;46.832;16.838;2024-02-23T15:34:44;10.40;97.40
32366;DHT22;18837;46.832;16.838;2024-02-23T15:37:10;10.40;97.40
32366;DHT22;18837;46.832;16.838;2024-02-23T15:39:36;10.40;97.40
32366;DHT22;18837;46.832;16.838;2024-02-23T15:42:02;10.30;97.40
32366;DHT22;18837;46.832;16.838;2024-02-23T15:44:28;10.30;97.40
32366;DHT22;18837;46.832;16.838;2024-02-23T15:46:54;10.30;97.30
32366;DHT22;18837;46.832;16.838;2024-02-23T15:49:20;10.30;97.40